sensor_id;sensor_type;location;lat;lon;timestamp;temperature;humidity
69715;HTU21D;56981;53.532;49.398;2023-04-03T00:00:25;5.11;71.55
69715;HTU21D;56981;53.532;49.398;2023-04-03T00:02:51;5.18;70.75
69715;HTU21D;56981;53.532;49.398;2023-04-03T00:05:17;5.21;70.61
69715;HTU21D;56981;53.532;49.398;2023-04-03T00:07:43;5.13;71.31
69715;HTU21D;56981;53.532;49.398;2023-04-03T00:10:09;5.06;72.46
69715;HTU21D;56981;53.532;49.398;2023-04-03T00:12:35;4.98;71.92
69715;HTU21D;56981;53.532;49.398;2023-04-03T00:15:02;4.89;72.99
69715;HTU21D;56981;53.532;49.398;2023-04-03T00:17:28;4.81;73.71
69715;HTU21D;56981;53.532;49.398;2023-04-03T00:19:54;4.77;73.25
69715;HTU21D;56981;53.532;49.398;2023-04-03T00:22:21;4.67;74.19
69715;HTU21D;56981;53.532;49.398;2023-04-03T00:24:47;4.58;73.71
69715;HTU21D;56981;53.532;49.398;2023-04-03T00:27:13;4.63;74.28
69715;HTU21D;56981;53.532;49.398;2023-04-03T00:29:41;4.53;74.09
69715;HTU21D;56981;53.532;49.398;2023-04-03T00:32:07;4.47;74.29
69715;HTU21D;56981;53.532;49.398;2023-04-03T00:34:33;4.32;74.80
69715;HTU21D;56981;53.532;49.398;2023-04-03T00:36:59;4.29;74.93
69715;HTU21D;56981;53.532;49.398;2023-04-03T00:39:26;4.26;75.45
69715;HTU21D;56981;53.532;49.398;2023-04-03T00:41:52;4.19;75.41
69715;HTU21D;56981;53.532;49.398;2023-04-03T00:47:10;4.02;75.36
69715;HTU21D;56981;53.532;49.398;2023-04-03T00:49:37;4.01;75.28
69715;HTU21D;56981;53.532;49.398;2023-04-03T00:52:06;4.00;75.40
69715;HTU21D;56981;53.532;49.398;2023-04-03T00:54:36;3.99;75.35
69715;HTU21D;56981;53.532;49.398;2023-04-03T00:57:03;3.93;75.50
69715;HTU21D;56981;53.532;49.398;2023-04-03T00:59:34;3.86;75.36
69715;HTU21D;56981;53.532;49.398;2023-04-03T01:02:02;3.79;75.80
69715;HTU21D;56981;53.532;49.398;2023-04-03T01:06:58;3.78;75.50
69715;HTU21D;56981;53.532;49.398;2023-04-03T01:09:25;3.75;76.09
69715;HTU21D;56981;53.532;49.398;2023-04-03T01:11:52;3.73;76.35
69715;HTU21D;56981;53.532;49.398;2023-04-03T01:14:18;3.71;76.75
69715;HTU21D;56981;53.532;49.398;2023-04-03T01:16:52;3.77;76.69
69715;HTU21D;56981;53.532;49.398;2023-04-03T01:19:21;3.77;76.37
69715;HTU21D;56981;53.532;49.398;2023-04-03T01:22:10;3.80;76.67
69715;HTU21D;56981;53.532;49.398;2023-04-03T01:24:41;3.85;76.22
69715;HTU21D;56981;53.532;49.398;2023-04-03T01:27:09;3.87;76.37
69715;HTU21D;56981;53.532;49.398;2023-04-03T01:29:37;3.97;75.18
69715;HTU21D;56981;53.532;49.398;2023-04-03T01:32:04;4.09;75.12
69715;HTU21D;56981;53.532;49.398;2023-04-03T01:34:30;4.12;74.60
69715;HTU21D;56981;53.532;49.398;2023-04-03T01:36:57;4.05;74.71
69715;HTU21D;56981;53.532;49.398;2023-04-03T01:39:23;4.10;74.63
69715;HTU21D;56981;53.532;49.398;2023-04-03T01:41:49;4.18;74.05
69715;HTU21D;56981;53.532;49.398;2023-04-03T01:44:15;4.30;73.25
69715;HTU21D;56981;53.532;49.398;2023-04-03T01:46:41;4.32;73.20
69715;HTU21D;56981;53.532;49.398;2023-04-03T01:49:08;4.34;72.84
69715;HTU21D;56981;53.532;49.398;2023-04-03T01:51:34;4.35;73.01
69715;HTU21D;56981;53.532;49.398;2023-04-03T01:54:00;4.37;72.54
69715;HTU21D;56981;53.532;49.398;2023-04-03T01:56:26;4.37;72.64
69715;HTU21D;56981;53.532;49.398;2023-04-03T01:58:53;4.41;72.52
69715;HTU21D;56981;53.532;49.398;2023-04-03T02:01:19;4.36;72.47
69715;HTU21D;56981;53.532;49.398;2023-04-03T02:03:45;4.36;72.51
69715;HTU21D;56981;53.532;49.398;2023-04-03T02:06:11;4.39;72.52
69715;HTU21D;56981;53.532;49.398;2023-04-03T02:08:37;4.51;71.91
69715;HTU21D;56981;53.532;49.398;2023-04-03T02:11:03;4.61;71.43
69715;HTU21D;56981;53.532;49.398;2023-04-03T02:13:30;4.69;71.05
69715;HTU21D;56981;53.532;49.398;2023-04-03T02:15:56;4.77;70.61
69715;HTU21D;56981;53.532;49.398;2023-04-03T02:18:22;4.89;70.07
69715;HTU21D;56981;53.532;49.398;2023-04-03T02:20:48;5.03;69.58
69715;HTU21D;56981;53.532;49.398;2023-04-03T02:23:14;5.18;68.87
69715;HTU21D;56981;53.532;49.398;2023-04-03T02:25:40;5.36;68.10
69715;HTU21D;56981;53.532;49.398;2023-04-03T02:28:06;5.72;67.33
69715;HTU21D;56981;53.532;49.398;2023-04-03T02:30:32;6.15;65.46
69715;HTU21D;56981;53.532;49.398;2023-04-03T02:32:58;6.65;64.11
69715;HTU21D;56981;53.532;49.398;2023-04-03T02:35:25;7.11;61.86
69715;HTU21D;56981;53.532;49.398;2023-04-03T02:37:51;7.62;60.02
69715;HTU21D;56981;53.532;49.398;2023-04-03T02:40:17;8.24;57.65
69715;HTU21D;56981;53.532;49.398;2023-04-03T02:42:43;8.92;55.65
69715;HTU21D;56981;53.532;49.398;2023-04-03T02:45:09;9.50;54.18
69715;HTU21D;56981;53.532;49.398;2023-04-03T02:47:38;10.07;52.14
69715;HTU21D;56981;53.532;49.398;2023-04-03T02:50:04;10.65;50.65
69715;HTU21D;56981;53.532;49.398;2023-04-03T02:52:31;10.75;49.63
69715;HTU21D;56981;53.532;49.398;2023-04-03T02:54:57;11.13;48.28
69715;HTU21D;56981;53.532;49.398;2023-04-03T02:57:24;11.63;47.21
69715;HTU21D;56981;53.532;49.398;2023-04-03T02:59:50;12.12;45.57
69715;HTU21D;56981;53.532;49.398;2023-04-03T03:02:16;12.73;43.34
69715;HTU21D;56981;53.532;49.398;2023-04-03T03:04:42;13.48;42.23
69715;HTU21D;56981;53.532;49.398;2023-04-03T03:07:09;13.79;40.84
69715;HTU21D;56981;53.532;49.398;2023-04-03T03:09:37;13.94;40.59
69715;HTU21D;56981;53.532;49.398;2023-04-03T03:12:04;13.89;39.88
69715;HTU21D;56981;53.532;49.398;2023-04-03T03:14:31;14.26;39.23
69715;HTU21D;56981;53.532;49.398;2023-04-03T03:16:57;15.12;37.06
69715;HTU21D;56981;53.532;49.398;2023-04-03T03:19:24;15.21;36.76
69715;HTU21D;56981;53.532;49.398;2023-04-03T03:21:50;15.88;35.31
69715;HTU21D;56981;53.532;49.398;2023-04-03T03:24:17;16.29;34.44
69715;HTU21D;56981;53.532;49.398;2023-04-03T03:26:43;16.39;33.94
69715;HTU21D;56981;53.532;49.398;2023-04-03T03:29:09;16.34;34.37
69715;HTU21D;56981;53.532;49.398;2023-04-03T03:31:36;16.37;33.68
69715;HTU21D;56981;53.532;49.398;2023-04-03T03:34:02;17.19;31.85
69715;HTU21D;56981;53.532;49.398;2023-04-03T03:36:28;17.65;31.06
69715;HTU21D;56981;53.532;49.398;2023-04-03T03:38:54;18.28;29.65
69715;HTU21D;56981;53.532;49.398;2023-04-03T03:41:21;18.23;30.21
69715;HTU21D;56981;53.532;49.398;2023-04-03T03:43:47;18.86;28.99
69715;HTU21D;56981;53.532;49.398;2023-04-03T03:46:13;18.34;29.48
69715;HTU21D;56981;53.532;49.398;2023-04-03T03:48:40;18.11;29.41
69715;HTU21D;56981;53.532;49.398;2023-04-03T03:51:06;18.79;28.51
69715;HTU21D;56981;53.532;49.398;2023-04-03T03:53:33;18.78;28.32
69715;HTU21D;56981;53.532;49.398;2023-04-03T03:55:59;19.14;27.43
69715;HTU21D;56981;53.532;49.398;2023-04-03T03:58:25;19.07;27.66
69715;HTU21D;56981;53.532;49.398;2023-04-03T04:00:51;19.45;27.77
69715;HTU21D;56981;53.532;49.398;2023-04-03T04:03:18;19.42;27.16
69715;HTU21D;56981;53.532;49.398;2023-04-03T04:05:44;19.81;26.55
69715;HTU21D;56981;53.532;49.398;2023-04-03T04:08:10;19.87;26.10
69715;HTU21D;56981;53.532;49.398;2023-04-03T04:10:37;20.15;26.77
69715;HTU21D;56981;53.532;49.398;2023-04-03T04:13:03;19.81;25.75
69715;HTU21D;56981;53.532;49.398;2023-04-03T04:15:29;19.41;26.81
69715;HTU21D;56981;53.532;49.398;2023-04-03T04:17:56;19.20;27.05
69715;HTU21D;56981;53.532;49.398;2023-04-03T04:20:23;18.79;27.54
69715;HTU21D;56981;53.532;49.398;2023-04-03T04:22:49;18.65;27.74
69715;HTU21D;56981;53.532;49.398;2023-04-03T04:25:15;19.15;26.97
69715;HTU21D;56981;53.532;49.398;2023-04-03T04:27:41;19.27;26.95
69715;HTU21D;56981;53.532;49.398;2023-04-03T04:30:08;20.11;25.23
69715;HTU21D;56981;53.532;49.398;2023-04-03T04:32:35;20.21;25.11
69715;HTU21D;56981;53.532;49.398;2023-04-03T04:35:01;20.80;24.04
69715;HTU21D;56981;53.532;49.398;2023-04-03T04:41:40;21.37;23.25
69715;HTU21D;56981;53.532;49.398;2023-04-03T04:44:06;21.64;22.58
69715;HTU21D;56981;53.532;49.398;2023-04-03T04:46:32;21.50;23.02
69715;HTU21D;56981;53.532;49.398;2023-04-03T04:48:58;21.19;24.20
69715;HTU21D;56981;53.532;49.398;2023-04-03T04:51:25;21.30;23.40
69715;HTU21D;56981;53.532;49.398;2023-04-03T04:53:51;21.25;22.79
69715;HTU21D;56981;53.532;49.398;2023-04-03T04:56:17;22.14;21.61
69715;HTU21D;56981;53.532;49.398;2023-04-03T04:58:43;21.66;22.22
69715;HTU21D;56981;53.532;49.398;2023-04-03T05:01:10;20.85;23.64
69715;HTU21D;56981;53.532;49.398;2023-04-03T05:03:36;20.73;23.54
69715;HTU21D;56981;53.532;49.398;2023-04-03T05:06:03;20.58;24.72
69715;HTU21D;56981;53.532;49.398;2023-04-03T05:08:29;21.27;22.92
69715;HTU21D;56981;53.532;49.398;2023-04-03T05:10:55;21.57;22.57
69715;HTU21D;56981;53.532;49.398;2023-04-03T05:13:21;21.81;22.10
69715;HTU21D;56981;53.532;49.398;2023-04-03T05:15:47;21.79;22.14
69715;HTU21D;56981;53.532;49.398;2023-04-03T05:18:13;22.10;21.62
69715;HTU21D;56981;53.532;49.398;2023-04-03T05:20:39;21.92;21.40
69715;HTU21D;56981;53.532;49.398;2023-04-03T05:23:05;21.98;21.37
69715;HTU21D;56981;53.532;49.398;2023-04-03T05:25:32;22.02;21.55
69715;HTU21D;56981;53.532;49.398;2023-04-03T05:27:58;21.46;21.91
69715;HTU21D;56981;53.532;49.398;2023-04-03T05:30:24;21.93;21.26
69715;HTU21D;56981;53.532;49.398;2023-04-03T05:32:50;22.03;20.99
69715;HTU21D;56981;53.532;49.398;2023-04-03T05:35:16;22.25;20.86
69715;HTU21D;56981;53.532;49.398;2023-04-03T05:37:42;22.35;20.31
69715;HTU21D;56981;53.532;49.398;2023-04-03T05:40:09;22.41;20.30
69715;HTU21D;56981;53.532;49.398;2023-04-03T05:42:35;22.50;20.42
69715;HTU21D;56981;53.532;49.398;2023-04-03T05:45:01;22.09;20.80
69715;HTU21D;56981;53.532;49.398;2023-04-03T05:47:27;21.90;21.16
69715;HTU21D;56981;53.532;49.398;2023-04-03T05:49:53;22.71;19.65
69715;HTU21D;56981;53.532;49.398;2023-04-03T05:52:40;22.86;19.33
69715;HTU21D;56981;53.532;49.398;2023-04-03T05:55:07;22.73;19.02
69715;HTU21D;56981;53.532;49.398;2023-04-03T05:57:33;22.19;20.21
69715;HTU21D;56981;53.532;49.398;2023-04-03T05:59:59;22.16;20.50
69715;HTU21D;56981;53.532;49.398;2023-04-03T06:02:25;22.14;20.74
69715;HTU21D;56981;53.532;49.398;2023-04-03T06:04:52;22.82;19.92
69715;HTU21D;56981;53.532;49.398;2023-04-03T06:07:21;23.09;19.69
69715;HTU21D;56981;53.532;49.398;2023-04-03T06:09:49;23.12;19.44
69715;HTU21D;56981;53.532;49.398;2023-04-03T06:12:17;23.36;19.20
69715;HTU21D;56981;53.532;49.398;2023-04-03T06:14:44;23.08;19.79
69715;HTU21D;56981;53.532;49.398;2023-04-03T06:17:10;22.87;19.47
69715;HTU21D;56981;53.532;49.398;2023-04-03T06:19:37;22.38;20.18
69715;HTU21D;56981;53.532;49.398;2023-04-03T06:22:04;22.60;20.14
69715;HTU21D;56981;53.532;49.398;2023-04-03T06:24:30;23.13;19.57
69715;HTU21D;56981;53.532;49.398;2023-04-03T06:26:57;23.47;18.48
69715;HTU21D;56981;53.532;49.398;2023-04-03T06:29:24;23.77;18.15
69715;HTU21D;56981;53.532;49.398;2023-04-03T06:31:51;23.71;18.06
69715;HTU21D;56981;53.532;49.398;2023-04-03T06:34:17;23.57;18.37
69715;HTU21D;56981;53.532;49.398;2023-04-03T06:36:44;23.49;18.66
69715;HTU21D;56981;53.532;49.398;2023-04-03T06:39:15;23.51;17.45
69715;HTU21D;56981;53.532;49.398;2023-04-03T06:41:43;23.55;17.51
69715;HTU21D;56981;53.532;49.398;2023-04-03T06:44:09;23.83;17.44
69715;HTU21D;56981;53.532;49.398;2023-04-03T06:46:37;23.45;16.67
69715;HTU21D;56981;53.532;49.398;2023-04-03T06:49:04;22.98;17.67
69715;HTU21D;56981;53.532;49.398;2023-04-03T06:51:33;22.70;17.89
69715;HTU21D;56981;53.532;49.398;2023-04-03T06:54:00;22.87;18.11
69715;HTU21D;56981;53.532;49.398;2023-04-03T06:56:27;23.23;17.69
69715;HTU21D;56981;53.532;49.398;2023-04-03T06:58:54;23.13;16.84
69715;HTU21D;56981;53.532;49.398;2023-04-03T07:01:21;22.77;18.10
69715;HTU21D;56981;53.532;49.398;2023-04-03T07:03:49;22.29;19.44
69715;HTU21D;56981;53.532;49.398;2023-04-03T07:06:17;21.83;18.31
69715;HTU21D;56981;53.532;49.398;2023-04-03T07:08:44;22.49;18.35
69715;HTU21D;56981;53.532;49.398;2023-04-03T07:11:14;22.32;18.57
69715;HTU21D;56981;53.532;49.398;2023-04-03T07:13:40;22.37;18.45
69715;HTU21D;56981;53.532;49.398;2023-04-03T07:16:07;21.85;19.02
69715;HTU21D;56981;53.532;49.398;2023-04-03T07:18:34;21.29;20.86
69715;HTU21D;56981;53.532;49.398;2023-04-03T07:21:01;21.15;20.03
69715;HTU21D;56981;53.532;49.398;2023-04-03T07:23:27;20.68;20.02
69715;HTU21D;56981;53.532;49.398;2023-04-03T07:25:53;20.85;19.79
69715;HTU21D;56981;53.532;49.398;2023-04-03T07:28:20;20.80;20.21
69715;HTU21D;56981;53.532;49.398;2023-04-03T07:30:50;20.65;20.33
69715;HTU21D;56981;53.532;49.398;2023-04-03T07:33:19;20.79;19.12
69715;HTU21D;56981;53.532;49.398;2023-04-03T07:35:46;21.10;19.86
69715;HTU21D;56981;53.532;49.398;2023-04-03T07:38:12;20.79;18.09
69715;HTU21D;56981;53.532;49.398;2023-04-03T07:40:39;21.08;18.51
69715;HTU21D;56981;53.532;49.398;2023-04-03T07:43:06;20.85;17.77
69715;HTU21D;56981;53.532;49.398;2023-04-03T07:45:34;20.40;18.00
69715;HTU21D;56981;53.532;49.398;2023-04-03T07:48:00;20.28;19.27
69715;HTU21D;56981;53.532;49.398;2023-04-03T07:50:30;20.45;18.37
69715;HTU21D;56981;53.532;49.398;2023-04-03T07:52:58;20.41;19.51
69715;HTU21D;56981;53.532;49.398;2023-04-03T07:55:25;20.77;17.71
69715;HTU21D;56981;53.532;49.398;2023-04-03T07:57:51;21.13;16.16
69715;HTU21D;56981;53.532;49.398;2023-04-03T08:00:17;21.03;15.17
69715;HTU21D;56981;53.532;49.398;2023-04-03T08:02:45;21.09;15.42
69715;HTU21D;56981;53.532;49.398;2023-04-03T08:05:20;21.19;15.44
69715;HTU21D;56981;53.532;49.398;2023-04-03T08:07:47;21.34;14.98
69715;HTU21D;56981;53.532;49.398;2023-04-03T08:10:14;21.54;16.03
69715;HTU21D;56981;53.532;49.398;2023-04-03T08:12:41;21.46;14.41
69715;HTU21D;56981;53.532;49.398;2023-04-03T08:15:07;21.50;15.13
69715;HTU21D;56981;53.532;49.398;2023-04-03T08:17:34;21.51;14.16
69715;HTU21D;56981;53.532;49.398;2023-04-03T08:20:01;21.51;14.11
69715;HTU21D;56981;53.532;49.398;2023-04-03T08:22:28;21.51;14.62
69715;HTU21D;56981;53.532;49.398;2023-04-03T08:24:54;21.42;14.45
69715;HTU21D;56981;53.532;49.398;2023-04-03T08:27:20;21.35;14.49
69715;HTU21D;56981;53.532;49.398;2023-04-03T08:29:46;21.17;15.42
69715;HTU21D;56981;53.532;49.398;2023-04-03T08:32:12;20.95;14.67
69715;HTU21D;56981;53.532;49.398;2023-04-03T08:34:38;20.81;15.56
69715;HTU21D;56981;53.532;49.398;2023-04-03T08:37:05;20.83;15.60
69715;HTU21D;56981;53.532;49.398;2023-04-03T08:39:31;20.58;15.40
69715;HTU21D;56981;53.532;49.398;2023-04-03T08:42:00;20.62;17.04
69715;HTU21D;56981;53.532;49.398;2023-04-03T08:47:21;20.13;16.34
69715;HTU21D;56981;53.532;49.398;2023-04-03T08:49:59;19.80;16.40
69715;HTU21D;56981;53.532;49.398;2023-04-03T08:52:41;19.55;16.65
69715;HTU21D;56981;53.532;49.398;2023-04-03T08:57:40;19.46;17.51
69715;HTU21D;56981;53.532;49.398;2023-04-03T09:00:18;19.38;18.48
69715;HTU21D;56981;53.532;49.398;2023-04-03T09:02:50;19.55;17.48
69715;HTU21D;56981;53.532;49.398;2023-04-03T09:10:33;19.06;17.65
69715;HTU21D;56981;53.532;49.398;2023-04-03T09:13:30;19.11;18.52
69715;HTU21D;56981;53.532;49.398;2023-04-03T09:15:53;19.07;16.41
69715;HTU21D;56981;53.532;49.398;2023-04-03T09:18:27;19.20;16.73
69715;HTU21D;56981;53.532;49.398;2023-04-03T09:21:02;19.27;16.90
69715;HTU21D;56981;53.532;49.398;2023-04-03T09:23:45;19.24;17.18
69715;HTU21D;56981;53.532;49.398;2023-04-03T09:28:45;19.30;17.01
69715;HTU21D;56981;53.532;49.398;2023-04-03T09:31:27;19.20;15.93
69715;HTU21D;56981;53.532;49.398;2023-04-03T09:33:57;18.93;16.11
69715;HTU21D;56981;53.532;49.398;2023-04-03T09:36:46;18.84;16.23
69715;HTU21D;56981;53.532;49.398;2023-04-03T09:39:18;18.58;15.90
69715;HTU21D;56981;53.532;49.398;2023-04-03T09:42:23;18.43;15.46
69715;HTU21D;56981;53.532;49.398;2023-04-03T09:44:57;18.38;13.62
69715;HTU21D;56981;53.532;49.398;2023-04-03T09:47:32;18.42;17.40
69715;HTU21D;56981;53.532;49.398;2023-04-03T09:52:41;18.44;15.39
69715;HTU21D;56981;53.532;49.398;2023-04-03T09:55:15;18.17;14.98
69715;HTU21D;56981;53.532;49.398;2023-04-03T09:57:44;18.27;15.04
69715;HTU21D;56981;53.532;49.398;2023-04-03T10:00:26;18.27;15.39
69715;HTU21D;56981;53.532;49.398;2023-04-03T10:02:56;18.36;15.69
69715;HTU21D;56981;53.532;49.398;2023-04-03T10:05:36;18.25;16.32
69715;HTU21D;56981;53.532;49.398;2023-04-03T10:10:43;18.12;17.80
69715;HTU21D;56981;53.532;49.398;2023-04-03T10:13:15;18.29;16.32
69715;HTU21D;56981;53.532;49.398;2023-04-03T10:15:45;18.33;14.54
69715;HTU21D;56981;53.532;49.398;2023-04-03T10:21:13;18.20;15.19
69715;HTU21D;56981;53.532;49.398;2023-04-03T10:23:51;18.21;15.55
69715;HTU21D;56981;53.532;49.398;2023-04-03T10:26:37;18.17;14.65
69715;HTU21D;56981;53.532;49.398;2023-04-03T10:29:23;18.08;14.74
69715;HTU21D;56981;53.532;49.398;2023-04-03T10:34:45;18.17;14.87
69715;HTU21D;56981;53.532;49.398;2023-04-03T10:37:25;18.17;16.32
69715;HTU21D;56981;53.532;49.398;2023-04-03T10:40:29;18.35;16.87
69715;HTU21D;56981;53.532;49.398;2023-04-03T10:43:09;18.26;15.28
69715;HTU21D;56981;53.532;49.398;2023-04-03T10:46:15;18.14;17.48
69715;HTU21D;56981;53.532;49.398;2023-04-03T10:51:35;17.91;19.06
69715;HTU21D;56981;53.532;49.398;2023-04-03T10:56:47;17.79;18.58
69715;HTU21D;56981;53.532;49.398;2023-04-03T10:59:28;17.79;19.27
69715;HTU21D;56981;53.532;49.398;2023-04-03T11:01:59;17.73;18.80
69715;HTU21D;56981;53.532;49.398;2023-04-03T11:04:31;17.66;20.98
69715;HTU21D;56981;53.532;49.398;2023-04-03T11:07:07;17.67;21.76
69715;HTU21D;56981;53.532;49.398;2023-04-03T11:09:37;17.67;20.82
69715;HTU21D;56981;53.532;49.398;2023-04-03T11:12:17;17.59;21.05
69715;HTU21D;56981;53.532;49.398;2023-04-03T11:14:45;17.56;21.89
69715;HTU21D;56981;53.532;49.398;2023-04-03T11:19:52;17.59;22.04
69715;HTU21D;56981;53.532;49.398;2023-04-03T11:32:12;17.43;22.65
69715;HTU21D;56981;53.532;49.398;2023-04-03T11:34:52;17.44;22.50
69715;HTU21D;56981;53.532;49.398;2023-04-03T11:37:41;17.43;23.21
69715;HTU21D;56981;53.532;49.398;2023-04-03T11:42:55;17.44;23.63
69715;HTU21D;56981;53.532;49.398;2023-04-03T11:45:35;17.37;22.99
69715;HTU21D;56981;53.532;49.398;2023-04-03T11:48:05;17.38;22.71
69715;HTU21D;56981;53.532;49.398;2023-04-03T12:01:00;17.59;22.74
69715;HTU21D;56981;53.532;49.398;2023-04-03T12:03:32;17.49;22.76
69715;HTU21D;56981;53.532;49.398;2023-04-03T12:08:47;17.58;23.23
69715;HTU21D;56981;53.532;49.398;2023-04-03T12:24:01;17.43;23.08
69715;HTU21D;56981;53.532;49.398;2023-04-03T12:29:17;17.33;23.08
69715;HTU21D;56981;53.532;49.398;2023-04-03T12:31:54;17.28;23.39
69715;HTU21D;56981;53.532;49.398;2023-04-03T12:40:46;17.20;24.13
69715;HTU21D;56981;53.532;49.398;2023-04-03T12:46:03;17.09;23.66
69715;HTU21D;56981;53.532;49.398;2023-04-03T12:48:32;17.07;23.78
69715;HTU21D;56981;53.532;49.398;2023-04-03T12:51:00;17.11;24.86
69715;HTU21D;56981;53.532;49.398;2023-04-03T12:53:32;17.13;23.23
69715;HTU21D;56981;53.532;49.398;2023-04-03T12:56:38;17.08;22.96
69715;HTU21D;56981;53.532;49.398;2023-04-03T12:59:20;17.08;22.94
69715;HTU21D;56981;53.532;49.398;2023-04-03T13:02:00;17.07;23.01
69715;HTU21D;56981;53.532;49.398;2023-04-03T13:04:28;17.13;23.95
69715;HTU21D;56981;53.532;49.398;2023-04-03T13:06:54;17.16;22.83
69715;HTU21D;56981;53.532;49.398;2023-04-03T13:09:23;17.17;23.30
69715;HTU21D;56981;53.532;49.398;2023-04-03T13:11:52;17.14;23.52
69715;HTU21D;56981;53.532;49.398;2023-04-03T13:14:25;17.09;24.17
69715;HTU21D;56981;53.532;49.398;2023-04-03T13:16:58;17.04;24.00
69715;HTU21D;56981;53.532;49.398;2023-04-03T13:19:26;16.96;23.56
69715;HTU21D;56981;53.532;49.398;2023-04-03T13:24:49;16.86;23.73
69715;HTU21D;56981;53.532;49.398;2023-04-03T13:27:17;16.82;24.08
69715;HTU21D;56981;53.532;49.398;2023-04-03T13:29:48;16.74;24.54
69715;HTU21D;56981;53.532;49.398;2023-04-03T13:32:19;16.75;24.28
69715;HTU21D;56981;53.532;49.398;2023-04-03T13:34:49;16.70;24.19
69715;HTU21D;56981;53.532;49.398;2023-04-03T13:37:30;16.70;24.69
69715;HTU21D;56981;53.532;49.398;2023-04-03T13:40:14;16.71;23.52
69715;HTU21D;56981;53.532;49.398;2023-04-03T13:42:41;16.66;24.85
69715;HTU21D;56981;53.532;49.398;2023-04-03T13:45:28;16.64;24.28
69715;HTU21D;56981;53.532;49.398;2023-04-03T13:48:17;16.63;24.23
69715;HTU21D;56981;53.532;49.398;2023-04-03T13:50:58;16.61;24.09
69715;HTU21D;56981;53.532;49.398;2023-04-03T13:53:27;16.59;24.07
69715;HTU21D;56981;53.532;49.398;2023-04-03T13:56:07;16.58;24.31
69715;HTU21D;56981;53.532;49.398;2023-04-03T13:58:34;16.59;24.25
69715;HTU21D;56981;53.532;49.398;2023-04-03T14:01:18;16.51;24.28
69715;HTU21D;56981;53.532;49.398;2023-04-03T14:03:57;16.50;24.12
69715;HTU21D;56981;53.532;49.398;2023-04-03T14:06:24;16.46;23.82
69715;HTU21D;56981;53.532;49.398;2023-04-03T14:08:54;16.43;23.84
69715;HTU21D;56981;53.532;49.398;2023-04-03T14:11:29;16.37;24.36
69715;HTU21D;56981;53.532;49.398;2023-04-03T14:13:59;16.36;24.14
69715;HTU21D;56981;53.532;49.398;2023-04-03T14:16:27;16.32;24.94
69715;HTU21D;56981;53.532;49.398;2023-04-03T14:18:55;16.30;24.53
69715;HTU21D;56981;53.532;49.398;2023-04-03T14:21:23;16.27;24.24
69715;HTU21D;56981;53.532;49.398;2023-04-03T14:23:50;16.21;25.23
69715;HTU21D;56981;53.532;49.398;2023-04-03T14:26:19;16.17;24.76
69715;HTU21D;56981;53.532;49.398;2023-04-03T14:28:49;16.14;24.10
69715;HTU21D;56981;53.532;49.398;2023-04-03T14:31:16;16.06;23.97
69715;HTU21D;56981;53.532;49.398;2023-04-03T14:33:44;16.02;24.41
69715;HTU21D;56981;53.532;49.398;2023-04-03T14:36:22;15.98;24.03
69715;HTU21D;56981;53.532;49.398;2023-04-03T14:38:49;15.95;24.56
69715;HTU21D;56981;53.532;49.398;2023-04-03T14:41:19;15.92;24.56
69715;HTU21D;56981;53.532;49.398;2023-04-03T14:43:46;15.85;24.71
69715;HTU21D;56981;53.532;49.398;2023-04-03T14:46:18;15.78;25.09
69715;HTU21D;56981;53.532;49.398;2023-04-03T14:48:46;15.73;25.36
69715;HTU21D;56981;53.532;49.398;2023-04-03T14:51:14;15.67;25.66
69715;HTU21D;56981;53.532;49.398;2023-04-03T14:53:45;15.61;25.94
69715;HTU21D;56981;53.532;49.398;2023-04-03T14:56:16;15.55;26.11
69715;HTU21D;56981;53.532;49.398;2023-04-03T14:58:43;15.48;27.05
69715;HTU21D;56981;53.532;49.398;2023-04-03T15:01:11;15.42;26.17
69715;HTU21D;56981;53.532;49.398;2023-04-03T15:03:44;15.33;26.54
69715;HTU21D;56981;53.532;49.398;2023-04-03T15:06:12;15.28;27.05
69715;HTU21D;56981;53.532;49.398;2023-04-03T15:08:40;15.22;26.60
69715;HTU21D;56981;53.532;49.398;2023-04-03T15:11:09;15.15;27.35
69715;HTU21D;56981;53.532;49.398;2023-04-03T15:13:37;15.02;26.88
69715;HTU21D;56981;53.532;49.398;2023-04-03T15:16:05;14.94;26.80
69715;HTU21D;56981;53.532;49.398;2023-04-03T15:18:37;14.85;27.29
69715;HTU21D;56981;53.532;49.398;2023-04-03T15:21:05;14.79;27.60
69715;HTU21D;56981;53.532;49.398;2023-04-03T15:23:31;14.74;27.19
69715;HTU21D;56981;53.532;49.398;2023-04-03T15:25:58;14.70;27.10
69715;HTU21D;56981;53.532;49.398;2023-04-03T15:28:34;14.63;27.33
69715;HTU21D;56981;53.532;49.398;2023-04-03T15:31:01;14.54;27.12
69715;HTU21D;56981;53.532;49.398;2023-04-03T15:33:29;14.48;27.32
69715;HTU21D;56981;53.532;49.398;2023-04-03T15:35:56;14.39;27.66
69715;HTU21D;56981;53.532;49.398;2023-04-03T15:38:25;14.29;28.10
69715;HTU21D;56981;53.532;49.398;2023-04-03T15:40:51;14.21;28.75
69715;HTU21D;56981;53.532;49.398;2023-04-03T15:43:18;14.12;28.94
69715;HTU21D;56981;53.532;49.398;2023-04-03T15:45:45;14.06;29.05
69715;HTU21D;56981;53.532;49.398;2023-04-03T15:48:12;13.96;29.49
69715;HTU21D;56981;53.532;49.398;2023-04-03T15:50:39;13.90;29.73
69715;HTU21D;56981;53.532;49.398;2023-04-03T15:53:06;13.84;29.84
69715;HTU21D;56981;53.532;49.398;2023-04-03T15:55:35;13.78;30.10
69715;HTU21D;56981;53.532;49.398;2023-04-03T15:58:01;13.70;32.79
69715;HTU21D;56981;53.532;49.398;2023-04-03T16:00:28;13.62;30.79
69715;HTU21D;56981;53.532;49.398;2023-04-03T16:03:05;13.52;32.93
69715;HTU21D;56981;53.532;49.398;2023-04-03T16:05:35;13.45;32.25
69715;HTU21D;56981;53.532;49.398;2023-04-03T16:08:02;13.36;31.93
69715;HTU21D;56981;53.532;49.398;2023-04-03T16:10:40;13.31;34.12
69715;HTU21D;56981;53.532;49.398;2023-04-03T16:13:26;13.25;35.03
69715;HTU21D;56981;53.532;49.398;2023-04-03T16:15:52;13.19;33.67
69715;HTU21D;56981;53.532;49.398;2023-04-03T16:18:22;13.09;35.82
69715;HTU21D;56981;53.532;49.398;2023-04-03T16:20:48;13.01;33.53
69715;HTU21D;56981;53.532;49.398;2023-04-03T16:23:29;12.93;39.56
69715;HTU21D;56981;53.532;49.398;2023-04-03T16:26:28;12.88;34.33
69715;HTU21D;56981;53.532;49.398;2023-04-03T16:28:55;12.79;34.28
69715;HTU21D;56981;53.532;49.398;2023-04-03T16:31:25;12.76;34.44
69715;HTU21D;56981;53.532;49.398;2023-04-03T16:33:58;12.76;36.21
69715;HTU21D;56981;53.532;49.398;2023-04-03T16:36:27;12.72;34.76
69715;HTU21D;56981;53.532;49.398;2023-04-03T16:38:59;12.71;36.09
69715;HTU21D;56981;53.532;49.398;2023-04-03T16:41:26;12.69;35.15
69715;HTU21D;56981;53.532;49.398;2023-04-03T16:44:07;12.64;39.77
69715;HTU21D;56981;53.532;49.398;2023-04-03T16:46:35;12.57;41.57
69715;HTU21D;56981;53.532;49.398;2023-04-03T16:49:34;12.47;43.04
69715;HTU21D;56981;53.532;49.398;2023-04-03T16:52:02;12.34;43.30
69715;HTU21D;56981;53.532;49.398;2023-04-03T16:54:29;12.25;44.08